Time;durP1;ratioP1;P1;durP2;ratioP2;P2;SDS_P1;SDS_P2;PMS_P1;PMS_P2;Temp;Humidity;BMP_temperature;BMP_pressure;BME280_temperature;BME280_humidity;BME280_pressure;Samples;Min_cycle;Max_cycle;Signal;HPM_P1;HPM_P2
2024/01/09 00:00:02;;;;;;;3.70;2.67;;;4.10;99.70;;;;;;5024024;28;20288;-46
2024/01/09 00:02:31;;;;;;;4.47;2.70;;;4.10;99.60;;;;;;5018422;28;20225;-46
2024/01/09 00:04:59;;;;;;;4.32;2.15;;;4.10;99.80;;;;;;5024443;28;20201;-49
2024/01/09 00:07:27;;;;;;;4.88;2.63;;;4.10;99.80;;;;;;5018033;28;20253;-45
2024/01/09 00:09:55;;;;;;;4.07;2.30;;;4.10;99.80;;;;;;5021235;28;20576;-44
2024/01/09 00:12:23;;;;;;;3.38;2.80;;;4.10;99.70;;;;;;5018307;28;20206;-46
2024/01/09 00:14:51;;;;;;;3.25;2.40;;;4.10;99.80;;;;;;5019370;28;20193;-44
2024/01/09 00:17:21;;;;;;;3.17;2.30;;;4.10;99.80;;;;;;5020142;28;20252;-45
2024/01/09 00:19:49;;;;;;;4.90;2.20;;;4.10;99.60;;;;;;5028331;28;20208;-46
2024/01/09 00:22:17;;;;;;;4.15;2.67;;;4.00;99.20;;;;;;5022562;28;20640;-46
2024/01/09 00:24:45;;;;;;;3.65;2.58;;;4.00;99.70;;;;;;5022199;28;20205;-45
2024/01/09 00:27:14;;;;;;;3.20;2.72;;;4.00;99.70;;;;;;5022821;28;20205;-45
2024/01/09 00:29:42;;;;;;;3.53;2.50;;;4.00;99.70;;;;;;5016828;28;20285;-45
2024/01/09 00:32:10;;;;;;;2.67;2.00;;;4.00;99.70;;;;;;5019020;28;20256;-47
2024/01/09 00:34:41;;;;;;;3.75;2.45;;;4.00;99.70;;;;;;5020791;28;20240;-44
2024/01/09 00:37:09;;;;;;;4.38;2.47;;;4.00;99.50;;;;;;5019144;28;20255;-46
2024/01/09 00:39:37;;;;;;;3.42;2.70;;;4.10;99.80;;;;;;5020287;28;20284;-47
2024/01/09 00:42:05;;;;;;;3.42;2.30;;;4.00;99.70;;;;;;5020456;28;20264;-46
2024/01/09 00:44:33;;;;;;;3.08;2.30;;;4.00;99.70;;;;;;5014542;28;20604;-48
2024/01/09 00:47:02;;;;;;;3.67;2.30;;;4.00;99.80;;;;;;5020965;28;20299;-45
2024/01/09 00:49:30;;;;;;;2.92;2.33;;;4.00;99.80;;;;;;5020051;28;20210;-46
2024/01/09 00:52:00;;;;;;;3.28;2.40;;;4.00;99.70;;;;;;5026055;28;20244;-45
2024/01/09 00:54:28;;;;;;;2.85;2.28;;;4.00;99.70;;;;;;5021629;28;20221;-47
2024/01/09 00:56:57;;;;;;;3.03;2.10;;;4.00;99.70;;;;;;5019456;28;20189;-45
2024/01/09 00:59:25;;;;;;;3.38;2.03;;;4.00;99.70;;;;;;5017236;28;20214;-44
2024/01/09 01:01:53;;;;;;;3.90;2.75;;;4.00;99.70;;;;;;5021140;28;20591;-47
2024/01/09 01:04:21;;;;;;;5.10;2.63;;;4.00;99.70;;;;;;5017731;28;20226;-48
2024/01/09 01:06:49;;;;;;;3.83;2.53;;;4.00;99.70;;;;;;5020086;28;20205;-45
2024/01/09 01:09:19;;;;;;;4.70;2.70;;;4.00;99.70;;;;;;5002814;28;20212;-50
2024/01/09 01:11:47;;;;;;;2.90;2.22;;;4.00;99.70;;;;;;5023313;28;20230;-47
2024/01/09 01:14:16;;;;;;;3.80;2.10;;;4.00;99.70;;;;;;5013416;28;20279;-46
2024/01/09 01:16:44;;;;;;;3.17;2.20;;;4.00;99.70;;;;;;5022236;28;20209;-46
2024/01/09 01:19:12;;;;;;;3.92;2.78;;;4.00;99.70;;;;;;5019446;28;20251;-46
2024/01/09 01:21:40;;;;;;;2.60;2.13;;;4.00;99.70;;;;;;5020386;28;20677;-44
2024/01/09 01:24:09;;;;;;;4.28;2.70;;;4.00;99.70;;;;;;5023729;28;20213;-47
2024/01/09 01:26:38;;;;;;;3.45;2.30;;;4.00;99.70;;;;;;5024016;28;20220;-45
2024/01/09 01:29:06;;;;;;;2.80;2.40;;;3.90;99.70;;;;;;5013579;28;20209;-45
2024/01/09 01:31:34;;;;;;;3.85;2.72;;;3.90;99.70;;;;;;5017353;28;20229;-44
2024/01/09 01:34:03;;;;;;;3.45;2.50;;;3.90;99.70;;;;;;5019156;28;20217;-45
2024/01/09 01:36:31;;;;;;;3.38;2.13;;;3.90;99.70;;;;;;5020912;28;20224;-47
2024/01/09 01:38:59;;;;;;;3.65;2.20;;;3.90;99.70;;;;;;5015459;28;20382;-45
2024/01/09 01:41:27;;;;;;;3.05;2.55;;;3.90;99.70;;;;;;5019872;28;20604;-46
2024/01/09 01:43:57;;;;;;;3.35;2.45;;;3.90;99.70;;;;;;5011931;28;20233;-46
2024/01/09 01:46:25;;;;;;;3.20;2.28;;;3.90;99.70;;;;;;5017443;28;20198;-44
2024/01/09 01:48:53;;;;;;;4.13;2.40;;;3.90;99.70;;;;;;5018154;28;20641;-46
2024/01/09 01:51:22;;;;;;;3.75;2.47;;;3.90;99.70;;;;;;5020978;28;20225;-45
2024/01/09 01:53:50;;;;;;;3.00;2.00;;;3.90;99.70;;;;;;5016342;28;20735;-47
2024/01/09 01:56:18;;;;;;;3.75;2.35;;;3.90;99.70;;;;;;5017518;28;20309;-45
2024/01/09 01:58:46;;;;;;;3.53;2.28;;;3.90;99.70;;;;;;5016746;28;20268;-46
2024/01/09 02:01:16;;;;;;;3.65;1.98;;;3.90;99.70;;;;;;5019261;28;20251;-44
2024/01/09 02:03:45;;;;;;;4.70;1.95;;;3.90;99.70;;;;;;5021587;28;20221;-45
2024/01/09 02:06:13;;;;;;;2.80;1.88;;;3.90;99.70;;;;;;5019071;28;20239;-45
2024/01/09 02:08:44;;;;;;;3.13;2.40;;;3.90;99.70;;;;;;5013972;28;20301;-45
2024/01/09 02:11:13;;;;;;;3.10;2.30;;;3.90;99.70;;;;;;5019347;28;20217;-49
2024/01/09 02:13:41;;;;;;;4.18;2.55;;;3.90;99.70;;;;;;5019108;28;20586;-46
2024/01/09 02:16:09;;;;;;;2.90;2.58;;;3.80;99.60;;;;;;5013844;28;20202;-45
2024/01/09 02:18:39;;;;;;;2.38;2.13;;;3.80;99.40;;;;;;5013683;28;20301;-45
2024/01/09 02:21:07;;;;;;;3.97;2.03;;;3.80;99.60;;;;;;5020024;28;20210;-46
2024/01/09 02:23:35;;;;;;;3.35;2.05;;;3.80;99.70;;;;;;5022452;28;20227;-44
2024/01/09 02:26:04;;;;;;;4.15;2.28;;;3.80;99.70;;;;;;5022578;28;20189;-45
2024/01/09 02:28:46;;;;;;;3.08;2.20;;;3.80;99.70;;;;;;5016246;28;20210;-46
2024/01/09 02:31:16;;;;;;;2.25;1.95;;;3.80;99.70;;;;;;5017618;28;20630;-45
2024/01/09 02:33:46;;;;;;;3.65;2.30;;;3.80;99.60;;;;;;5018128;28;20218;-46
2024/01/09 02:36:15;;;;;;;3.70;2.03;;;3.80;99.70;;;;;;5013869;28;20197;-47
2024/01/09 02:38:44;;;;;;;3.17;1.88;;;3.80;99.60;;;;;;5022187;28;20239;-45
2024/01/09 02:41:12;;;;;;;2.63;2.10;;;3.80;99.70;;;;;;5022931;28;20697;-45
2024/01/09 02:43:40;;;;;;;4.05;2.88;;;3.80;99.90;;;;;;5017811;28;20225;-46
2024/01/09 02:46:08;;;;;;;2.75;1.90;;;3.80;99.60;;;;;;4995268;28;20564;-46
2024/01/09 02:48:37;;;;;;;3.95;2.33;;;3.80;99.60;;;;;;5017639;28;20647;-45
2024/01/09 02:51:05;;;;;;;4.07;2.42;;;3.80;99.70;;;;;;5019864;28;20236;-45
2024/01/09 02:53:34;;;;;;;3.42;2.60;;;3.80;99.60;;;;;;5018646;28;20304;-46
2024/01/09 02:56:02;;;;;;;3.33;2.15;;;3.80;99.70;;;;;;5012174;28;20197;-44
2024/01/09 02:58:30;;;;;;;3.65;2.50;;;3.70;99.50;;;;;;5013609;28;20214;-46
2024/01/09 03:00:58;;;;;;;2.92;2.10;;;3.70;99.50;;;;;;5020778;28;20599;-45
2024/01/09 03:03:26;;;;;;;3.35;2.55;;;3.70;99.60;;;;;;5018582;28;20222;-46
2024/01/09 03:05:56;;;;;;;2.67;2.15;;;3.70;99.60;;;;;;5025754;28;20232;-46
2024/01/09 03:08:24;;;;;;;3.25;2.20;;;3.70;99.60;;;;;;5017879;28;20226;-46
2024/01/09 03:10:52;;;;;;;3.83;2.40;;;3.70;99.60;;;;;;5025627;28;20721;-46
2024/01/09 03:13:20;;;;;;;4.13;2.58;;;3.70;99.60;;;;;;5018454;28;20209;-47
2024/01/09 03:15:48;;;;;;;3.22;1.90;;;3.70;99.60;;;;;;5018710;28;20202;-46
2024/01/09 03:18:16;;;;;;;3.10;2.38;;;3.70;99.60;;;;;;5012190;28;20557;-45
2024/01/09 03:20:45;;;;;;;4.18;2.58;;;3.70;99.60;;;;;;5029579;28;20642;-45
2024/01/09 03:23:14;;;;;;;3.15;2.38;;;3.70;99.60;;;;;;5021693;28;20227;-47
2024/01/09 03:25:43;;;;;;;4.47;2.33;;;3.70;99.60;;;;;;5023786;28;20206;-45
2024/01/09 03:28:10;;;;;;;2.15;1.75;;;3.70;99.90;;;;;;5027609;28;20225;-46
2024/01/09 03:30:39;;;;;;;3.50;2.17;;;3.70;99.60;;;;;;5026587;28;20246;-46
2024/01/09 03:33:07;;;;;;;3.60;2.10;;;3.70;99.60;;;;;;5031143;28;20224;-47
2024/01/09 03:35:36;;;;;;;2.35;2.03;;;3.70;99.60;;;;;;5029324;28;20236;-45
2024/01/09 03:38:05;;;;;;;3.78;2.30;;;3.70;99.60;;;;;;5030556;28;20217;-45
2024/01/09 03:40:35;;;;;;;3.40;2.05;;;3.70;99.60;;;;;;5026484;28;20699;-45
2024/01/09 03:43:03;;;;;;;3.20;2.40;;;3.70;99.60;;;;;;5027961;28;20267;-44
2024/01/09 03:45:31;;;;;;;2.65;1.80;;;3.70;99.60;;;;;;5023516;28;20872;-46
2024/01/09 03:47:59;;;;;;;2.70;1.75;;;3.60;99.50;;;;;;5032036;28;20221;-45
2024/01/09 03:50:27;;;;;;;4.30;2.78;;;3.70;99.60;;;;;;5028468;28;20249;-47
2024/01/09 03:52:55;;;;;;;3.72;2.50;;;3.60;99.60;;;;;;5021192;28;20221;-44
2024/01/09 03:55:25;;;;;;;3.60;2.28;;;3.60;99.50;;;;;;5010064;28;20393;-46
2024/01/09 03:57:54;;;;;;;3.30;2.15;;;3.60;99.50;;;;;;5019429;28;20663;-45
2024/01/09 04:00:22;;;;;;;2.92;2.00;;;3.60;99.50;;;;;;5015030;28;20225;-46
2024/01/09 04:02:50;;;;;;;4.32;2.80;;;3.60;99.50;;;;;;5024294;28;20221;-46
2024/01/09 04:05:19;;;;;;;3.10;1.95;;;3.60;99.50;;;;;;5028707;28;20271;-46
2024/01/09 04:07:47;;;;;;;3.08;1.73;;;3.60;99.50;;;;;;5000169;28;20264;-45
2024/01/09 04:10:15;;;;;;;3.22;2.30;;;3.60;99.60;;;;;;5021822;28;20210;-44
2024/01/09 04:12:43;;;;;;;5.45;2.50;;;3.60;99.50;;;;;;5024341;28;20252;-47
2024/01/09 04:15:13;;;;;;;3.10;2.08;;;3.60;99.50;;;;;;5018843;28;20679;-45
2024/01/09 04:17:41;;;;;;;3.92;2.60;;;3.60;99.50;;;;;;5020010;28;20611;-45
2024/01/09 04:20:12;;;;;;;3.58;2.53;;;3.60;99.50;;;;;;5023163;28;20225;-46
2024/01/09 04:22:41;;;;;;;2.90;1.95;;;3.60;99.50;;;;;;5027033;28;20237;-45
2024/01/09 04:25:10;;;;;;;3.60;2.50;;;3.60;99.50;;;;;;5021459;28;20201;-47
2024/01/09 04:27:38;;;;;;;2.38;1.80;;;3.60;99.50;;;;;;5021078;28;20227;-48
2024/01/09 04:30:07;;;;;;;2.47;2.00;;;3.60;99.50;;;;;;5016474;28;20332;-48
2024/01/09 04:32:37;;;;;;;2.92;2.22;;;3.60;99.50;;;;;;5019287;28;20221;-45
2024/01/09 04:35:05;;;;;;;3.08;2.00;;;3.60;99.50;;;;;;5018027;28;20193;-47
2024/01/09 04:37:34;;;;;;;4.25;2.97;;;3.50;99.40;;;;;;5019103;28;20695;-46
2024/01/09 04:40:02;;;;;;;3.10;2.03;;;3.60;99.50;;;;;;5027804;28;20209;-45
2024/01/09 04:42:30;;;;;;;3.45;2.35;;;3.50;99.50;;;;;;5014920;28;20230;-49
2024/01/09 04:44:58;;;;;;;3.05;2.28;;;3.60;99.50;;;;;;5016799;28;20600;-47
2024/01/09 04:47:26;;;;;;;3.10;2.13;;;3.50;99.50;;;;;;5013667;28;20198;-44
2024/01/09 04:49:56;;;;;;;3.72;2.15;;;3.50;99.40;;;;;;5023531;28;20193;-47
2024/01/09 04:52:24;;;;;;;3.22;2.30;;;3.60;99.50;;;;;;5016149;28;20202;-46
2024/01/09 04:54:52;;;;;;;3.72;2.50;;;3.50;99.40;;;;;;5021995;28;20660;-46
2024/01/09 04:57:20;;;;;;;3.85;2.38;;;3.50;99.40;;;;;;5017058;28;20193;-45
2024/01/09 04:59:49;;;;;;;3.58;2.53;;;3.50;99.40;;;;;;5011931;28;20501;-50
2024/01/09 05:02:17;;;;;;;4.43;2.55;;;3.50;99.50;;;;;;5022493;28;20569;-46
2024/01/09 05:04:46;;;;;;;2.65;1.95;;;3.50;99.50;;;;;;5021281;28;20192;-46
2024/01/09 05:07:15;;;;;;;2.63;2.08;;;3.50;99.50;;;;;;5018126;28;20202;-46
2024/01/09 05:09:43;;;;;;;3.05;1.90;;;3.50;99.50;;;;;;5023344;28;20198;-46
2024/01/09 05:12:11;;;;;;;3.47;2.00;;;3.50;99.50;;;;;;5018589;28;20209;-48
2024/01/09 05:14:39;;;;;;;2.47;1.80;;;3.50;99.50;;;;;;5017690;28;20213;-45
2024/01/09 05:17:08;;;;;;;3.60;2.53;;;3.50;99.50;;;;;;5021267;28;20197;-46
2024/01/09 05:19:36;;;;;;;3.72;2.05;;;3.50;99.50;;;;;;5020081;28;20242;-46
2024/01/09 05:22:04;;;;;;;3.25;2.20;;;3.50;99.50;;;;;;5015383;28;20276;-46
2024/01/09 05:24:34;;;;;;;4.03;2.30;;;3.40;99.40;;;;;;5018445;28;20225;-46
2024/01/09 05:27:02;;;;;;;2.80;2.00;;;3.40;99.50;;;;;;5018321;28;20205;-45
2024/01/09 05:29:30;;;;;;;2.95;2.00;;;3.50;99.50;;;;;;5014321;28;20229;-48
2024/01/09 05:31:58;;;;;;;4.85;2.40;;;3.50;99.50;;;;;;5007598;28;20228;-46
2024/01/09 05:34:26;;;;;;;2.80;2.00;;;3.40;99.40;;;;;;5021742;28;20237;-45
2024/01/09 05:36:54;;;;;;;3.30;2.33;;;3.40;99.40;;;;;;5022271;28;20220;-45
2024/01/09 05:39:22;;;;;;;3.10;2.35;;;3.40;99.40;;;;;;5016185;28;20671;-47
2024/01/09 05:41:52;;;;;;;3.17;2.10;;;3.40;99.40;;;;;;5024226;28;20213;-45
2024/01/09 05:44:20;;;;;;;3.45;2.13;;;3.40;99.40;;;;;;5015422;28;20762;-47
2024/01/09 05:46:49;;;;;;;3.42;2.40;;;3.40;99.40;;;;;;5017230;28;20206;-47
2024/01/09 05:49:17;;;;;;;3.40;2.30;;;3.40;99.40;;;;;;5019780;28;20637;-47
2024/01/09 05:51:45;;;;;;;2.88;1.75;;;3.40;99.40;;;;;;5014520;28;20524;-45
2024/01/09 05:54:13;;;;;;;3.22;2.03;;;3.40;99.40;;;;;;5019540;28;20624;-45
2024/01/09 05:56:41;;;;;;;3.00;2.30;;;3.40;99.40;;;;;;5014882;28;20194;-46
2024/01/09 05:59:11;;;;;;;3.65;2.45;;;3.40;99.40;;;;;;5004227;28;20229;-48
2024/01/09 06:01:39;;;;;;;3.25;2.25;;;3.40;99.40;;;;;;5015619;28;20206;-48
2024/01/09 06:04:08;;;;;;;2.80;1.77;;;3.40;99.40;;;;;;5019512;28;20357;-48
2024/01/09 06:06:36;;;;;;;3.17;1.83;;;3.40;99.40;;;;;;5018279;28;20193;-49
2024/01/09 06:09:04;;;;;;;4.53;3.28;;;3.30;99.40;;;;;;5022455;28;20209;-47
2024/01/09 06:11:32;;;;;;;3.97;2.30;;;3.40;99.40;;;;;;5024978;28;20220;-49
2024/01/09 06:14:00;;;;;;;3.95;2.20;;;3.30;99.40;;;;;;5017264;28;20312;-48
2024/01/09 06:16:30;;;;;;;3.50;2.22;;;3.40;99.40;;;;;;5019791;28;20241;-48
2024/01/09 06:18:58;;;;;;;3.15;2.03;;;3.30;99.40;;;;;;5020829;28;20673;-50
2024/01/09 06:21:26;;;;;;;4.05;2.22;;;3.30;99.40;;;;;;5017118;28;20628;-47
2024/01/09 06:23:55;;;;;;;3.28;2.13;;;3.30;99.40;;;;;;5013969;28;20332;-47
2024/01/09 06:26:23;;;;;;;3.20;2.35;;;3.30;99.40;;;;;;5015276;28;20193;-49
2024/01/09 06:28:52;;;;;;;4.05;2.78;;;3.30;99.30;;;;;;5016186;28;20223;-46
2024/01/09 06:31:20;;;;;;;3.50;2.65;;;3.30;99.40;;;;;;5013056;28;20700;-46
2024/01/09 06:33:49;;;;;;;2.80;2.25;;;3.30;99.40;;;;;;5018001;28;20230;-46
2024/01/09 06:36:18;;;;;;;3.88;2.22;;;3.30;99.40;;;;;;5023600;28;20196;-48
2024/01/09 06:38:46;;;;;;;2.85;1.95;;;3.30;99.40;;;;;;5018447;28;20218;-48
2024/01/09 06:41:16;;;;;;;4.38;2.53;;;3.30;99.40;;;;;;5023924;28;20216;-47
2024/01/09 06:43:44;;;;;;;4.57;2.15;;;3.30;99.40;;;;;;5022856;28;20213;-48
2024/01/09 06:46:12;;;;;;;3.30;2.45;;;3.30;99.40;;;;;;5015947;28;20209;-48
2024/01/09 06:48:40;;;;;;;2.72;1.88;;;3.20;99.30;;;;;;5020834;28;20268;-46
2024/01/09 06:51:09;;;;;;;3.05;2.17;;;3.20;99.30;;;;;;5017575;28;20719;-46
2024/01/09 06:53:37;;;;;;;3.15;1.92;;;3.30;99.30;;;;;;5021836;28;20241;-47
2024/01/09 06:56:06;;;;;;;4.75;2.50;;;3.20;99.30;;;;;;5025543;28;20208;-47
2024/01/09 06:58:35;;;;;;;3.13;2.10;;;3.20;99.30;;;;;;5017227;28;20228;-48
2024/01/09 07:01:03;;;;;;;4.28;1.85;;;3.20;99.30;;;;;;5018806;28;20214;-47
2024/01/09 07:03:32;;;;;;;2.53;1.55;;;3.20;99.30;;;;;;5027055;28;20213;-48
2024/01/09 07:06:00;;;;;;;3.55;2.22;;;3.20;99.30;;;;;;5023646;28;20182;-44
2024/01/09 07:08:30;;;;;;;2.35;1.30;;;3.20;99.30;;;;;;5018311;28;20493;-46
2024/01/09 07:10:58;;;;;;;3.67;1.85;;;3.20;99.30;;;;;;5006847;28;20853;-45
2024/01/09 07:13:26;;;;;;;2.85;1.83;;;3.20;99.30;;;;;;5024258;28;20229;-46
2024/01/09 07:15:54;;;;;;;3.08;1.98;;;3.20;99.30;;;;;;5014118;28;20203;-44
2024/01/09 07:18:24;;;;;;;3.55;2.30;;;3.20;99.30;;;;;;5020861;28;20280;-45
2024/01/09 07:20:52;;;;;;;4.05;2.90;;;3.20;99.30;;;;;;5011832;28;20695;-44
2024/01/09 07:23:21;;;;;;;3.72;2.30;;;3.20;99.30;;;;;;5012772;28;20308;-45
2024/01/09 07:25:51;;;;;;;2.80;2.20;;;3.20;99.30;;;;;;5014713;28;20202;-45
2024/01/09 07:28:20;;;;;;;3.00;2.00;;;3.20;99.30;;;;;;5015854;28;20221;-44
2024/01/09 07:30:48;;;;;;;2.85;2.08;;;3.20;99.30;;;;;;5017388;28;20632;-46
2024/01/09 07:33:16;;;;;;;3.88;2.28;;;3.20;99.20;;;;;;5022828;28;20580;-44
2024/01/09 07:35:45;;;;;;;3.92;2.25;;;3.20;99.30;;;;;;5026129;28;20197;-46
2024/01/09 07:38:13;;;;;;;3.15;2.08;;;3.20;99.20;;;;;;5020747;28;20271;-46
2024/01/09 07:40:42;;;;;;;3.05;2.35;;;3.10;99.30;;;;;;5023291;28;20224;-45
2024/01/09 07:43:11;;;;;;;4.40;2.22;;;3.10;99.20;;;;;;5023893;28;20225;-44
2024/01/09 07:45:39;;;;;;;3.88;2.25;;;3.10;99.20;;;;;;5016421;28;20198;-45
2024/01/09 07:48:08;;;;;;;2.90;2.13;;;3.10;99.20;;;;;;5021241;28;20316;-43
2024/01/09 07:50:36;;;;;;;3.97;2.10;;;3.10;99.20;;;;;;5025049;28;20304;-47
2024/01/09 07:53:05;;;;;;;4.07;2.30;;;3.10;99.20;;;;;;5024148;28;20222;-44
2024/01/09 07:55:33;;;;;;;3.28;2.10;;;3.10;99.20;;;;;;5019310;28;20193;-44
2024/01/09 07:58:01;;;;;;;2.50;1.90;;;3.10;99.20;;;;;;5020057;28;20218;-43
2024/01/09 08:00:32;;;;;;;3.60;2.20;;;3.10;99.20;;;;;;5014186;28;20770;-44
2024/01/09 08:03:01;;;;;;;3.30;2.13;;;3.10;99.20;;;;;;5018022;28;20781;-44
2024/01/09 08:05:29;;;;;;;3.20;2.60;;;3.10;99.20;;;;;;5020556;28;20198;-44
2024/01/09 08:07:57;;;;;;;4.05;2.72;;;3.10;99.20;;;;;;4997997;28;20248;-44
2024/01/09 08:10:26;;;;;;;3.78;2.13;;;3.10;99.20;;;;;;5012491;28;20276;-44
2024/01/09 08:12:54;;;;;;;2.72;2.28;;;3.10;99.20;;;;;;5026900;28;20228;-46
2024/01/09 08:15:23;;;;;;;3.60;2.45;;;3.10;99.20;;;;;;5017473;28;20532;-47
2024/01/09 08:17:52;;;;;;;2.63;2.15;;;3.00;99.20;;;;;;5021008;28;20221;-46
2024/01/09 08:20:21;;;;;;;2.60;1.80;;;3.00;99.20;;;;;;5022874;28;20216;-47
2024/01/09 08:22:49;;;;;;;2.70;1.80;;;3.00;99.20;;;;;;5022917;28;20231;-46
2024/01/09 08:25:17;;;;;;;3.55;2.50;;;3.00;99.20;;;;;;5021527;28;20193;-46
2024/01/09 08:27:45;;;;;;;4.00;2.80;;;3.00;99.20;;;;;;5020613;28;20205;-45
2024/01/09 08:30:14;;;;;;;2.83;2.00;;;3.00;99.20;;;;;;5018324;28;20221;-45
2024/01/09 08:32:42;;;;;;;3.03;2.20;;;3.00;99.20;;;;;;5020593;28;20605;-46
2024/01/09 08:35:12;;;;;;;3.42;2.10;;;3.00;99.20;;;;;;5025916;28;20193;-46
2024/01/09 08:37:40;;;;;;;3.20;2.45;;;3.00;99.20;;;;;;5018083;28;20682;-46
2024/01/09 08:40:10;;;;;;;4.20;2.10;;;3.00;99.20;;;;;;5018408;28;20280;-48
2024/01/09 08:42:38;;;;;;;4.28;2.45;;;3.00;99.10;;;;;;5023773;28;20249;-45
2024/01/09 08:45:08;;;;;;;3.10;2.53;;;3.00;99.20;;;;;;5014559;28;20275;-46
2024/01/09 08:47:37;;;;;;;3.55;2.47;;;3.00;99.10;;;;;;5021360;28;20220;-47
2024/01/09 08:50:07;;;;;;;3.53;2.40;;;3.00;99.20;;;;;;5021698;28;20651;-45
2024/01/09 08:52:37;;;;;;;3.58;2.05;;;3.00;99.20;;;;;;5024129;28;20700;-45
2024/01/09 08:55:06;;;;;;;3.50;2.20;;;3.00;99.20;;;;;;5025110;28;20544;-48
2024/01/09 08:57:34;;;;;;;3.50;1.95;;;3.00;99.00;;;;;;5026464;28;20726;-46
2024/01/09 09:00:04;;;;;;;4.03;2.28;;;3.00;99.10;;;;;;5021137;28;20193;-46
2024/01/09 09:02:32;;;;;;;2.67;2.22;;;3.00;99.20;;;;;;5023243;28;20687;-48
2024/01/09 09:05:00;;;;;;;2.53;2.05;;;2.90;99.10;;;;;;5026391;28;20221;-46
2024/01/09 09:07:28;;;;;;;3.05;2.08;;;3.00;99.10;;;;;;5023496;28;20229;-48
2024/01/09 09:09:58;;;;;;;2.95;1.70;;;2.90;99.10;;;;;;5028825;28;20284;-46
2024/01/09 09:12:28;;;;;;;2.65;1.90;;;2.90;99.10;;;;;;5032427;28;20201;-46
2024/01/09 09:14:56;;;;;;;3.05;2.25;;;2.90;99.10;;;;;;5024290;28;20575;-45
2024/01/09 09:17:24;;;;;;;3.20;2.08;;;2.90;99.10;;;;;;5028892;28;20193;-46
2024/01/09 09:19:52;;;;;;;3.22;2.60;;;2.90;99.10;;;;;;5033182;28;20560;-47
2024/01/09 09:22:25;;;;;;;3.40;2.38;;;2.90;98.70;;;;;;5032141;28;20628;-47
2024/01/09 09:24:53;;;;;;;3.30;2.10;;;3.00;99.00;;;;;;5034733;28;20272;-48
2024/01/09 09:27:23;;;;;;;3.65;2.75;;;2.90;99.00;;;;;;5033014;28;20224;-46
2024/01/09 09:29:52;;;;;;;3.25;2.05;;;2.90;98.80;;;;;;5028972;28;20193;-48
2024/01/09 09:32:20;;;;;;;2.40;1.80;;;3.00;98.90;;;;;;5021653;28;20200;-45
2024/01/09 09:34:48;;;;;;;3.03;2.17;;;2.90;98.90;;;;;;5018758;28;20217;-45
2024/01/09 09:37:20;;;;;;;3.83;2.40;;;3.00;99.00;;;;;;5021735;28;20193;-48
2024/01/09 09:39:48;;;;;;;4.00;2.13;;;3.00;98.90;;;;;;5024696;28;20410;-46
2024/01/09 09:42:16;;;;;;;2.67;2.35;;;3.00;98.90;;;;;;5017972;28;20703;-43
2024/01/09 09:44:52;;;;;;;5.05;3.22;;;3.00;98.90;;;;;;5016730;28;20218;-44
2024/01/09 09:47:21;;;;;;;4.70;2.03;;;3.00;98.90;;;;;;5015500;28;20273;-45
2024/01/09 09:49:51;;;;;;;3.95;2.30;;;3.00;98.80;;;;;;5010611;28;20289;-48
2024/01/09 09:52:21;;;;;;;4.88;2.03;;;3.00;98.80;;;;;;5009022;28;20192;-46
2024/01/09 09:54:51;;;;;;;3.67;2.17;;;3.00;98.80;;;;;;5021014;28;20209;-46
2024/01/09 09:57:20;;;;;;;3.05;2.22;;;3.00;98.70;;;;;;5020323;28;20651;-47
2024/01/09 09:59:50;;;;;;;3.00;2.10;;;3.00;98.70;;;;;;5000790;28;20209;-47
2024/01/09 10:02:25;;;;;;;4.78;3.17;;;3.00;99.20;;;;;;5019760;28;20205;-44
2024/01/09 10:04:57;;;;;;;3.65;2.17;;;3.00;98.30;;;;;;5022700;28;20197;-44
2024/01/09 10:07:25;;;;;;;2.70;1.98;;;3.00;98.40;;;;;;5023886;28;20193;-44
2024/01/09 10:09:55;;;;;;;2.65;1.70;;;3.00;98.60;;;;;;5027373;28;21355;-44
2024/01/09 10:12:24;;;;;;;3.20;2.33;;;3.00;98.60;;;;;;5020319;28;20194;-43
2024/01/09 10:15:04;;;;;;;4.72;3.35;;;3.00;98.60;;;;;;5023983;28;20312;-44
2024/01/09 10:17:33;;;;;;;3.00;1.80;;;3.00;98.40;;;;;;5025663;28;20320;-45
2024/01/09 10:20:01;;;;;;;4.18;2.30;;;3.00;98.60;;;;;;5026871;28;20277;-44
2024/01/09 10:22:33;;;;;;;2.85;2.20;;;3.00;98.70;;;;;;5030042;28;20229;-45
2024/01/09 10:25:01;;;;;;;3.38;2.10;;;2.90;98.70;;;;;;5012958;28;20280;-44
2024/01/09 10:27:29;;;;;;;4.22;2.83;;;2.90;98.60;;;;;;5026972;28;20210;-44
2024/01/09 10:29:58;;;;;;;3.55;2.60;;;2.90;97.80;;;;;;5016022;28;20565;-44
2024/01/09 10:32:28;;;;;;;2.88;2.40;;;2.90;98.20;;;;;;5028321;28;20209;-44
2024/01/09 10:34:56;;;;;;;4.70;2.10;;;2.90;98.10;;;;;;5015051;28;20210;-43
2024/01/09 10:37:27;;;;;;;2.83;2.05;;;2.90;97.80;;;;;;5022894;28;20269;-44
2024/01/09 10:39:55;;;;;;;5.00;3.05;;;2.90;98.00;;;;;;5023793;28;20566;-44
2024/01/09 10:42:23;;;;;;;2.58;1.70;;;2.80;97.60;;;;;;5022339;28;20198;-44
2024/01/09 10:44:52;;;;;;;2.60;1.75;;;2.90;98.10;;;;;;5018041;28;20216;-44
2024/01/09 10:47:22;;;;;;;3.20;2.10;;;2.80;98.40;;;;;;5020070;28;20198;-43
2024/01/09 10:49:53;;;;;;;3.17;1.98;;;2.80;98.20;;;;;;5024937;28;20217;-44
2024/01/09 10:52:21;;;;;;;4.68;2.70;;;2.80;98.20;;;;;;5015727;28;20213;-44
2024/01/09 10:54:50;;;;;;;4.00;2.58;;;2.80;97.50;;;;;;5008996;28;20204;-44
2024/01/09 10:57:22;;;;;;;5.13;3.05;;;2.80;98.00;;;;;;5003019;28;20189;-45
2024/01/09 10:59:52;;;;;;;3.25;1.90;;;2.80;98.10;;;;;;5025036;28;20209;-44
2024/01/09 11:02:21;;;;;;;3.72;2.40;;;2.80;98.40;;;;;;5018691;28;20194;-44
2024/01/09 11:04:54;;;;;;;4.25;2.75;;;2.80;98.20;;;;;;5009743;28;20221;-44
2024/01/09 11:07:23;;;;;;;5.07;2.38;;;2.80;97.90;;;;;;5014542;28;20201;-44
2024/01/09 11:09:52;;;;;;;4.22;3.83;;;2.80;98.00;;;;;;5026426;28;20193;-44
2024/01/09 11:12:23;;;;;;;5.40;3.60;;;2.80;98.20;;;;;;5027543;28;20193;-43
2024/01/09 11:14:56;;;;;;;4.07;3.50;;;2.80;97.70;;;;;;5020034;28;20586;-44
2024/01/09 11:17:26;;;;;;;5.30;3.88;;;2.80;97.90;;;;;;5024375;28;20663;-44
2024/01/09 11:19:56;;;;;;;4.28;3.08;;;2.80;98.00;;;;;;5025758;28;20324;-43
2024/01/09 11:22:24;;;;;;;6.55;4.65;;;2.80;97.80;;;;;;5019165;28;20201;-43
2024/01/09 11:24:57;;;;;;;4.47;3.75;;;2.70;97.70;;;;;;5026078;28;20302;-44
2024/01/09 11:27:38;;;;;;;5.20;3.15;;;2.80;97.90;;;;;;5024492;28;20193;-43
2024/01/09 11:30:10;;;;;;;5.55;3.10;;;2.70;97.70;;;;;;5016562;28;20690;-43
2024/01/09 11:32:39;;;;;;;5.22;3.20;;;2.70;97.90;;;;;;5023442;28;20226;-44
2024/01/09 11:35:13;;;;;;;4.95;3.20;;;2.70;97.60;;;;;;5023589;28;20635;-44
2024/01/09 11:37:44;;;;;;;3.95;3.05;;;2.70;97.00;;;;;;5024166;28;20726;-45
2024/01/09 11:40:13;;;;;;;3.75;2.80;;;2.70;98.00;;;;;;5026354;28;20235;-47
2024/01/09 11:42:45;;;;;;;6.55;3.47;;;2.70;98.60;;;;;;5024604;28;20252;-45
2024/01/09 11:45:19;;;;;;;3.67;3.20;;;2.70;97.00;;;;;;5020301;28;20201;-45
2024/01/09 11:47:47;;;;;;;5.20;3.28;;;2.70;98.10;;;;;;5024346;28;20720;-48
2024/01/09 11:50:17;;;;;;;4.10;3.33;;;2.70;98.40;;;;;;5021338;28;20614;-47
2024/01/09 11:52:47;;;;;;;3.05;2.75;;;2.70;98.40;;;;;;5025899;28;20591;-47
2024/01/09 11:55:18;;;;;;;3.83;3.10;;;2.70;98.60;;;;;;5030521;28;20190;-49
2024/01/09 11:57:46;;;;;;;5.00;3.10;;;2.70;98.50;;;;;;5025169;28;20218;-44
2024/01/09 12:00:15;;;;;;;4.38;3.58;;;2.70;97.30;;;;;;5020558;28;20275;-45
2024/01/09 12:02:43;;;;;;;3.60;2.35;;;2.70;97.50;;;;;;5024654;28;20222;-46
2024/01/09 12:05:12;;;;;;;4.07;3.20;;;2.70;98.40;;;;;;5021479;28;20260;-47
2024/01/09 12:07:42;;;;;;;5.40;3.30;;;2.70;98.60;;;;;;5023007;28;20218;-47
2024/01/09 12:10:10;;;;;;;3.28;2.95;;;2.70;98.60;;;;;;5025771;28;20205;-44
2024/01/09 12:13:02;;;;;;;4.45;3.03;;;2.70;98.70;;;;;;5025617;28;20223;-44
2024/01/09 12:15:30;;;;;;;3.67;3.08;;;2.70;98.80;;;;;;5016431;28;20190;-44
2024/01/09 12:17:58;;;;;;;3.65;3.25;;;2.70;98.80;;;;;;5020316;28;20216;-45
2024/01/09 12:20:27;;;;;;;6.70;3.05;;;2.70;98.40;;;;;;5019932;28;20224;-44
2024/01/09 12:22:58;;;;;;;3.55;3.00;;;2.70;98.30;;;;;;5019807;28;20217;-44
2024/01/09 12:25:29;;;;;;;4.47;2.85;;;2.70;98.70;;;;;;5023719;28;20213;-44
2024/01/09 12:27:58;;;;;;;3.15;2.50;;;2.70;98.80;;;;;;5019733;28;20263;-44
2024/01/09 12:30:31;;;;;;;3.50;2.63;;;2.70;98.50;;;;;;5017824;28;20214;-44
2024/01/09 12:33:03;;;;;;;3.47;3.10;;;2.70;98.60;;;;;;5019206;28;20240;-44
2024/01/09 12:35:31;;;;;;;3.70;2.47;;;2.70;98.50;;;;;;5023076;28;20198;-44
2024/01/09 12:38:01;;;;;;;3.15;2.35;;;2.70;98.10;;;;;;5023206;28;20236;-43
2024/01/09 12:40:30;;;;;;;5.50;2.90;;;2.70;98.20;;;;;;5023421;28;20268;-44
2024/01/09 12:43:11;;;;;;;4.00;3.17;;;2.70;97.70;;;;;;5019555;28;20225;-44
2024/01/09 12:45:43;;;;;;;5.50;3.03;;;2.70;98.20;;;;;;5014139;28;20742;-44
2024/01/09 12:48:11;;;;;;;4.38;2.63;;;2.70;97.90;;;;;;5016953;28;20218;-44
2024/01/09 12:50:39;;;;;;;4.68;3.22;;;2.60;97.90;;;;;;5004583;28;20217;-42
2024/01/09 12:53:11;;;;;;;6.72;3.33;;;2.70;98.40;;;;;;5016021;28;20221;-43
2024/01/09 12:55:41;;;;;;;5.03;3.15;;;2.80;97.60;;;;;;5008726;28;20198;-45
2024/01/09 12:58:09;;;;;;;5.13;3.55;;;2.80;96.70;;;;;;5013886;28;20772;-45
2024/01/09 13:00:40;;;;;;;5.60;3.75;;;2.80;97.30;;;;;;5016624;28;20289;-46
2024/01/09 13:03:13;;;;;;;5.20;3.80;;;2.80;97.00;;;;;;5008888;28;20217;-45
2024/01/09 13:05:41;;;;;;;5.97;3.35;;;2.90;97.10;;;;;;5017840;28;20210;-45